createdAt,value
2018-09-30T00:00:12.653Z,6.54
2018-09-30T00:01:12.646Z,6.67
2018-09-30T00:02:12.642Z,6.67
2018-09-30T00:03:12.634Z,6.69
2018-09-30T00:04:12.628Z,6.70
2018-09-30T00:05:12.623Z,6.64
2018-09-30T00:06:12.616Z,6.60
2018-09-30T00:07:12.610Z,6.56
2018-09-30T00:08:12.605Z,6.59
2018-09-30T00:09:12.597Z,6.57
2018-09-30T00:10:12.590Z,6.62
2018-09-30T00:11:12.585Z,6.54
2018-09-30T00:12:12.579Z,6.54
2018-09-30T00:13:12.573Z,6.52
2018-09-30T00:14:12.566Z,6.52
2018-09-30T00:15:12.560Z,6.57
2018-09-30T00:16:12.553Z,6.49
2018-09-30T00:17:12.548Z,6.44
2018-09-30T00:18:12.540Z,6.48
2018-09-30T00:19:12.534Z,6.49
2018-09-30T00:20:12.528Z,6.42
2018-09-30T00:21:12.522Z,6.46
2018-09-30T00:22:12.515Z,6.44
2018-09-30T00:23:12.508Z,6.38
2018-09-30T00:24:12.503Z,6.46
2018-09-30T00:25:12.497Z,6.48
2018-09-30T00:26:12.490Z,6.49
2018-09-30T00:27:12.482Z,6.46
2018-09-30T00:28:12.478Z,6.52
2018-09-30T00:29:12.472Z,6.41
2018-09-30T00:30:12.463Z,6.30
2018-09-30T00:31:12.458Z,6.28
2018-09-30T00:32:12.452Z,6.30
2018-09-30T00:33:12.444Z,6.30
2018-09-30T00:34:12.441Z,6.28
2018-09-30T00:35:12.432Z,6.16
2018-09-30T00:36:12.440Z,6.31
2018-09-30T00:37:12.420Z,6.14
2018-09-30T00:38:12.414Z,6.27
2018-09-30T00:39:12.407Z,6.22
2018-09-30T00:40:12.401Z,6.14
2018-09-30T00:41:12.395Z,6.17
2018-09-30T00:42:12.387Z,6.07
2018-09-30T00:43:12.380Z,5.94
2018-09-30T00:44:12.376Z,5.97
2018-09-30T00:45:12.368Z,5.98
2018-09-30T00:46:12.361Z,5.99
2018-09-30T00:47:12.354Z,5.94
2018-09-30T00:48:12.349Z,6.01
2018-09-30T00:49:12.342Z,6.04
2018-09-30T00:50:12.335Z,6.05
2018-09-30T00:51:12.329Z,6.01
2018-09-30T00:52:12.322Z,5.90
2018-09-30T00:53:12.317Z,5.97
2018-09-30T00:54:12.310Z,5.98
2018-09-30T00:55:12.304Z,5.93
2018-09-30T00:56:12.297Z,5.91
2018-09-30T00:57:12.291Z,5.87
2018-09-30T00:58:12.284Z,5.99
2018-09-30T00:59:12.279Z,5.87
2018-09-30T01:00:12.271Z,5.87
2018-09-30T01:01:12.264Z,5.86
2018-09-30T01:02:12.256Z,5.84
2018-09-30T01:03:12.250Z,5.84
2018-09-30T01:04:12.245Z,5.86
2018-09-30T01:05:12.238Z,5.89
2018-09-30T01:06:12.230Z,5.82
2018-09-30T01:07:12.223Z,5.86
2018-09-30T01:08:12.217Z,5.97
2018-09-30T01:09:12.212Z,6.02
2018-09-30T01:10:12.204Z,5.99
2018-09-30T01:11:12.200Z,6.11
2018-09-30T01:12:12.243Z,6.16
2018-09-30T01:13:12.185Z,6.16
2018-09-30T01:14:12.178Z,6.17
2018-09-30T01:15:12.170Z,6.12
2018-09-30T01:16:12.163Z,6.09
2018-09-30T01:17:12.156Z,6.11
2018-09-30T01:18:12.150Z,5.98
2018-09-30T01:19:12.143Z,6.05
2018-09-30T01:20:12.136Z,5.97
2018-09-30T01:21:12.131Z,5.89
2018-09-30T01:22:12.123Z,5.99
2018-09-30T01:23:12.117Z,5.93
2018-09-30T01:24:12.111Z,5.90
2018-09-30T01:25:12.103Z,5.83
2018-09-30T01:26:12.097Z,5.89
2018-09-30T01:27:12.090Z,5.84
2018-09-30T01:28:12.086Z,5.82
2018-09-30T01:29:12.077Z,5.90
2018-09-30T01:30:12.069Z,5.76
2018-09-30T01:31:12.063Z,5.84
2018-09-30T01:32:12.059Z,5.80
2018-09-30T01:33:12.049Z,5.79
2018-09-30T01:34:12.043Z,5.82
2018-09-30T01:35:12.035Z,5.84
2018-09-30T01:36:12.033Z,5.80
2018-09-30T01:37:12.022Z,5.79
2018-09-30T01:38:12.014Z,5.83
2018-09-30T01:39:12.008Z,5.83
2018-09-30T01:40:12.002Z,5.84
2018-09-30T01:41:11.995Z,5.86
2018-09-30T01:42:11.986Z,5.80
2018-09-30T01:43:11.981Z,5.83
2018-09-30T01:44:11.974Z,5.76
2018-09-30T01:45:11.969Z,5.82
2018-09-30T01:46:11.961Z,5.76
2018-09-30T01:47:11.954Z,5.80
2018-09-30T01:48:11.947Z,5.76
2018-09-30T01:49:11.940Z,5.73
2018-09-30T01:50:11.932Z,5.65
2018-09-30T01:51:11.926Z,5.64
2018-09-30T01:52:11.919Z,5.64
2018-09-30T01:53:11.913Z,5.71
2018-09-30T01:54:11.904Z,5.61
2018-09-30T01:55:11.897Z,5.68
2018-09-30T01:56:11.895Z,5.62
2018-09-30T01:57:11.885Z,5.69
2018-09-30T01:58:11.878Z,5.61
2018-09-30T01:59:11.870Z,5.71
2018-09-30T02:00:11.863Z,5.66
2018-09-30T02:01:11.856Z,5.72
2018-09-30T02:02:11.848Z,5.69
2018-09-30T02:03:11.843Z,5.65
2018-09-30T02:04:11.835Z,5.71
2018-09-30T02:05:11.829Z,5.71
2018-09-30T02:06:11.820Z,5.65
2018-09-30T02:07:11.814Z,5.62
2018-09-30T02:08:11.807Z,5.59
2018-09-30T02:09:11.802Z,5.59
2018-09-30T02:10:11.792Z,5.51
2018-09-30T02:11:11.786Z,5.59
2018-09-30T02:12:11.779Z,5.50
2018-09-30T02:13:11.773Z,5.46
2018-09-30T02:14:11.764Z,5.54
2018-09-30T02:15:11.758Z,5.44
2018-09-30T02:16:11.753Z,5.46
2018-09-30T02:17:11.745Z,5.46
2018-09-30T02:18:11.736Z,5.35
2018-09-30T02:19:11.729Z,5.43
2018-09-30T02:20:11.722Z,5.44
2018-09-30T02:21:11.716Z,5.47
2018-09-30T02:22:11.709Z,5.48
2018-09-30T02:23:11.704Z,5.35
2018-09-30T02:24:11.694Z,5.39
2018-09-30T02:25:11.688Z,5.39
2018-09-30T02:26:11.679Z,5.46
2018-09-30T02:27:11.673Z,5.36
2018-09-30T02:28:11.666Z,5.41
2018-09-30T02:29:11.662Z,5.36
2018-09-30T02:30:11.651Z,5.39
2018-09-30T02:31:11.645Z,5.38
2018-09-30T02:32:11.639Z,5.39
2018-09-30T02:33:11.630Z,5.39
2018-09-30T02:34:11.624Z,5.43
2018-09-30T02:35:11.617Z,5.33
2018-09-30T02:36:11.610Z,5.43
2018-09-30T02:37:11.603Z,5.39
2018-09-30T02:38:11.595Z,5.35
2018-09-30T02:39:11.589Z,5.35
2018-09-30T02:40:11.581Z,5.29
2018-09-30T02:41:11.574Z,5.32
2018-09-30T02:42:11.571Z,5.30
2018-09-30T02:43:11.559Z,5.21
2018-09-30T02:44:11.553Z,5.21
2018-09-30T02:45:11.544Z,5.23
2018-09-30T02:46:11.540Z,5.21
2018-09-30T02:47:11.531Z,5.12
2018-09-30T02:48:11.524Z,5.29
2018-09-30T02:49:11.516Z,5.23
2018-09-30T02:50:11.508Z,5.20
2018-09-30T02:51:11.501Z,5.18
2018-09-30T02:52:11.494Z,5.21
2018-09-30T02:53:11.489Z,5.23
2018-09-30T02:54:11.480Z,5.21
2018-09-30T02:55:11.474Z,5.23
2018-09-30T02:56:11.466Z,5.23
2018-09-30T02:57:11.462Z,5.20
2018-09-30T02:58:11.453Z,5.17
2018-09-30T02:59:11.445Z,5.07
2018-09-30T03:00:11.463Z,5.12
2018-09-30T03:01:11.438Z,5.12
2018-09-30T03:02:11.422Z,5.10
2018-09-30T03:03:11.416Z,5.10
2018-09-30T03:04:11.408Z,5.11
2018-09-30T03:05:11.400Z,5.11
2018-09-30T03:06:11.393Z,5.11
2018-09-30T03:07:11.387Z,5.07
2018-09-30T03:08:11.380Z,5.02
2018-09-30T03:09:11.371Z,5.02
2018-09-30T03:10:11.365Z,4.97
2018-09-30T03:11:11.356Z,4.94
2018-09-30T03:12:11.351Z,4.94
2018-09-30T03:13:11.342Z,4.90
2018-09-30T03:14:11.334Z,4.99
2018-09-30T03:15:11.327Z,5.04
2018-09-30T03:16:11.321Z,5.04
2018-09-30T03:17:11.312Z,5.00
2018-09-30T03:18:11.305Z,5.00
2018-09-30T03:19:11.300Z,4.96
2018-09-30T03:20:11.293Z,5.04
2018-09-30T03:21:11.284Z,5.02
2018-09-30T03:22:11.274Z,4.90
2018-09-30T03:23:11.267Z,4.99
2018-09-30T03:24:11.262Z,4.94
2018-09-30T03:25:11.253Z,4.96
2018-09-30T03:26:11.246Z,4.94
2018-09-30T03:27:11.238Z,4.94
2018-09-30T03:28:11.231Z,4.94
2018-09-30T03:29:11.223Z,4.93
2018-09-30T03:30:11.217Z,4.96
2018-09-30T03:31:11.209Z,5.00
2018-09-30T03:32:11.201Z,4.92
2018-09-30T03:33:11.195Z,4.89
2018-09-30T03:34:11.187Z,4.87
2018-09-30T03:35:11.180Z,4.84
2018-09-30T03:36:11.173Z,4.78
2018-09-30T03:37:11.166Z,4.86
2018-09-30T03:38:11.162Z,4.78
2018-09-30T03:39:11.150Z,4.73
2018-09-30T03:40:11.141Z,4.74
2018-09-30T03:41:11.137Z,4.82
2018-09-30T03:42:11.127Z,4.75
2018-09-30T03:43:11.120Z,4.75
2018-09-30T03:44:11.112Z,4.78
2018-09-30T03:45:11.104Z,4.77
2018-09-30T03:46:11.096Z,4.75
2018-09-30T03:47:11.090Z,4.66
2018-09-30T03:48:11.082Z,4.62
2018-09-30T03:49:11.075Z,4.63
2018-09-30T03:50:11.067Z,4.62
2018-09-30T03:51:11.060Z,4.60
2018-09-30T03:52:11.052Z,4.62
2018-09-30T03:53:11.047Z,4.63
2018-09-30T03:54:11.039Z,4.58
2018-09-30T03:55:11.031Z,4.62
2018-09-30T03:56:11.023Z,4.62
2018-09-30T03:57:11.016Z,4.55
2018-09-30T03:58:11.008Z,4.58
2018-09-30T03:59:10.999Z,4.52
2018-09-30T04:00:10.999Z,4.49
2018-09-30T04:01:10.985Z,4.45
2018-09-30T04:02:10.977Z,4.44
2018-09-30T04:03:10.969Z,4.44
2018-09-30T04:04:10.964Z,4.45
2018-09-30T04:05:10.955Z,4.37
2018-09-30T04:06:10.948Z,4.35
2018-09-30T04:07:10.942Z,4.45
2018-09-30T04:08:10.932Z,4.52
2018-09-30T04:09:10.925Z,4.56
2018-09-30T04:10:10.974Z,4.59
2018-09-30T04:11:10.910Z,4.56
2018-09-30T04:12:10.909Z,4.62
2018-09-30T04:13:10.895Z,4.56
2018-09-30T04:14:10.888Z,4.59
2018-09-30T04:15:10.879Z,4.49
2018-09-30T04:16:10.872Z,4.50
2018-09-30T04:17:10.903Z,4.42
2018-09-30T04:18:10.857Z,4.50
2018-09-30T04:19:10.850Z,4.49
2018-09-30T04:20:10.842Z,4.53
2018-09-30T04:21:10.835Z,4.53
2018-09-30T04:22:10.826Z,4.58
2018-09-30T04:23:10.818Z,4.53
2018-09-30T04:24:10.812Z,4.66
2018-09-30T04:25:10.803Z,4.53
2018-09-30T04:26:10.795Z,4.52
2018-09-30T04:27:10.787Z,4.49
2018-09-30T04:28:10.780Z,4.58
2018-09-30T04:29:10.771Z,4.58
2018-09-30T04:30:10.767Z,4.58
2018-09-30T04:31:10.757Z,4.52
2018-09-30T04:32:10.750Z,4.52
2018-09-30T04:33:10.746Z,4.42
2018-09-30T04:34:10.736Z,4.52
2018-09-30T04:35:10.729Z,4.50
2018-09-30T04:36:10.723Z,4.53
2018-09-30T04:37:10.713Z,4.58
2018-09-30T04:38:10.705Z,4.63
2018-09-30T04:39:10.697Z,4.66
2018-09-30T04:40:10.692Z,4.62
2018-09-30T04:41:10.682Z,4.78
2018-09-30T04:42:10.672Z,4.74
2018-09-30T04:43:10.665Z,4.78
2018-09-30T04:44:10.660Z,4.75
2018-09-30T04:45:10.650Z,4.77
2018-09-30T04:46:10.643Z,4.75
2018-09-30T04:47:10.634Z,4.82
2018-09-30T04:48:10.627Z,4.74
2018-09-30T04:49:10.620Z,4.71
2018-09-30T04:50:10.701Z,4.77
2018-09-30T04:51:10.603Z,4.80
2018-09-30T04:52:10.596Z,4.71
2018-09-30T04:53:10.590Z,4.62
2018-09-30T04:54:10.582Z,4.60
2018-09-30T04:55:10.573Z,4.60
2018-09-30T04:56:10.566Z,4.63
2018-09-30T04:57:10.558Z,4.62
2018-09-30T04:58:10.550Z,4.45
2018-09-30T04:59:10.542Z,4.52
2018-09-30T05:00:10.533Z,4.42
2018-09-30T05:01:10.528Z,4.49
2018-09-30T05:02:10.519Z,4.49
2018-09-30T05:03:10.510Z,4.42
2018-09-30T05:04:10.503Z,4.49
2018-09-30T05:05:10.499Z,4.53
2018-09-30T05:06:10.493Z,4.53
2018-09-30T05:07:10.480Z,4.55
2018-09-30T05:08:10.472Z,4.49
2018-09-30T05:09:10.465Z,4.45
2018-09-30T05:10:10.457Z,4.44
2018-09-30T05:11:10.449Z,4.45
2018-09-30T05:12:10.442Z,4.45
2018-09-30T05:13:10.434Z,4.34
2018-09-30T05:14:10.425Z,4.37
2018-09-30T05:15:10.419Z,4.38
2018-09-30T05:16:10.505Z,4.41
2018-09-30T05:17:10.403Z,4.28
2018-09-30T05:18:10.397Z,4.22
2018-09-30T05:19:10.387Z,4.17
2018-09-30T05:20:10.380Z,4.17
2018-09-30T05:21:10.373Z,4.17
2018-09-30T05:22:10.364Z,4.26
2018-09-30T05:23:10.356Z,4.22
2018-09-30T05:24:10.348Z,4.16
2018-09-30T05:25:10.343Z,4.22
2018-09-30T05:26:10.334Z,4.17
2018-09-30T05:27:10.327Z,4.28
2018-09-30T05:28:10.323Z,4.23
2018-09-30T05:29:10.312Z,4.17
2018-09-30T05:30:10.303Z,4.14
2018-09-30T05:31:10.354Z,4.20
2018-09-30T05:32:10.288Z,4.08
2018-09-30T05:33:10.282Z,4.13
2018-09-30T05:34:10.278Z,4.08
2018-09-30T05:35:10.265Z,4.02
2018-09-30T05:36:10.256Z,4.19
2018-09-30T05:37:10.264Z,4.19
2018-09-30T05:38:10.269Z,4.12
2018-09-30T05:39:10.235Z,4.10
2018-09-30T05:40:10.226Z,4.08
2018-09-30T05:41:10.217Z,4.06
2018-09-30T05:42:10.209Z,4.10
2018-09-30T05:43:10.206Z,4.14
2018-09-30T05:44:10.193Z,4.10
2018-09-30T05:45:10.187Z,4.10
2018-09-30T05:46:10.178Z,4.05
2018-09-30T05:47:10.172Z,4.01
2018-09-30T05:48:10.162Z,4.13
2018-09-30T05:49:10.217Z,4.13
2018-09-30T05:50:10.148Z,4.05
2018-09-30T05:51:10.138Z,4.23
2018-09-30T05:52:10.132Z,4.22
2018-09-30T05:53:10.123Z,4.20
2018-09-30T05:54:10.115Z,4.17
2018-09-30T05:55:10.107Z,4.41
2018-09-30T05:56:10.100Z,4.35
2018-09-30T05:57:10.092Z,4.40
2018-09-30T05:58:10.167Z,4.44
2018-09-30T05:59:10.078Z,4.45
2018-09-30T06:00:10.069Z,4.44
2018-09-30T06:01:10.061Z,4.52
2018-09-30T06:02:10.053Z,4.52
2018-09-30T06:03:10.044Z,4.49
2018-09-30T06:04:10.038Z,4.58
2018-09-30T06:05:10.030Z,4.56
2018-09-30T06:06:10.021Z,4.58
2018-09-30T06:07:10.014Z,4.55
2018-09-30T06:08:10.007Z,4.59
2018-09-30T06:09:10.104Z,4.67
2018-09-30T06:10:09.990Z,4.62
2018-09-30T06:11:09.989Z,4.63
2018-09-30T06:12:09.974Z,4.59
2018-09-30T06:13:09.967Z,4.58
2018-09-30T06:14:10.099Z,4.60
2018-09-30T06:15:09.951Z,4.66
2018-09-30T06:16:09.949Z,4.62
2018-09-30T06:17:09.936Z,4.70
2018-09-30T06:18:09.929Z,4.60
2018-09-30T06:19:09.921Z,4.67
2018-09-30T06:20:09.916Z,4.70
2018-09-30T06:21:09.906Z,4.82
2018-09-30T06:22:09.898Z,4.68
2018-09-30T06:23:09.891Z,4.78
2018-09-30T06:24:09.891Z,4.77
2018-09-30T06:25:09.876Z,4.87
2018-09-30T06:26:09.866Z,4.87
2018-09-30T06:27:09.859Z,4.80
2018-09-30T06:28:09.854Z,4.87
2018-09-30T06:29:09.846Z,4.89
2018-09-30T06:30:09.835Z,4.94
2018-09-30T06:31:09.828Z,4.93
2018-09-30T06:32:09.910Z,4.97
2018-09-30T06:33:09.813Z,5.00
2018-09-30T06:34:09.805Z,5.05
2018-09-30T06:35:09.799Z,5.10
2018-09-30T06:36:09.790Z,5.20
2018-09-30T06:37:09.824Z,5.32
2018-09-30T06:38:09.775Z,5.29
2018-09-30T06:39:09.767Z,5.36
2018-09-30T06:40:09.760Z,5.32
2018-09-30T06:41:09.752Z,5.38
2018-09-30T06:42:09.751Z,5.41
2018-09-30T06:43:09.739Z,5.39
2018-09-30T06:44:09.729Z,5.36
2018-09-30T06:45:09.838Z,5.43
2018-09-30T06:46:09.714Z,5.54
2018-09-30T06:47:09.708Z,5.48
2018-09-30T06:48:09.699Z,5.59
2018-09-30T06:49:09.692Z,5.65
2018-09-30T06:50:09.684Z,5.69
2018-09-30T06:51:09.677Z,5.73
2018-09-30T06:52:09.669Z,5.83
2018-09-30T06:53:09.664Z,5.82
2018-09-30T06:54:09.655Z,6.05
2018-09-30T06:55:09.647Z,6.16
2018-09-30T06:56:09.643Z,6.22
2018-09-30T06:57:09.633Z,6.33
2018-09-30T06:58:09.627Z,6.31
2018-09-30T06:59:09.618Z,6.44
2018-09-30T07:00:09.612Z,6.49
2018-09-30T07:01:09.603Z,6.67
2018-09-30T07:02:09.596Z,6.77
2018-09-30T07:03:09.590Z,6.74
2018-09-30T07:04:09.582Z,6.93
2018-09-30T07:05:09.575Z,6.92
2018-09-30T07:06:09.567Z,7.05
2018-09-30T07:07:09.561Z,7.20
2018-09-30T07:08:09.553Z,7.24
2018-09-30T07:09:09.545Z,7.25
2018-09-30T07:10:09.538Z,7.38
2018-09-30T07:11:09.532Z,7.53
2018-09-30T07:12:09.523Z,7.60
2018-09-30T07:13:09.517Z,7.79
2018-09-30T07:14:09.510Z,7.87
2018-09-30T07:15:09.503Z,7.88
2018-09-30T07:16:09.500Z,8.03
2018-09-30T07:17:09.490Z,8.18
2018-09-30T07:18:09.482Z,8.24
2018-09-30T07:19:09.475Z,8.31
2018-09-30T07:20:09.469Z,8.18
2018-09-30T07:21:09.463Z,8.28
2018-09-30T07:22:09.499Z,8.31
2018-09-30T07:23:09.448Z,8.36
2018-09-30T07:24:09.441Z,8.30
2018-09-30T07:25:09.434Z,8.34
2018-09-30T07:26:09.427Z,8.33
2018-09-30T07:27:09.421Z,8.34
2018-09-30T07:28:09.417Z,8.24
2018-09-30T07:29:09.409Z,8.41
2018-09-30T07:30:09.401Z,8.44
2018-09-30T07:31:09.396Z,8.63
2018-09-30T07:32:09.388Z,8.66
2018-09-30T07:33:09.382Z,8.85
2018-09-30T07:34:09.378Z,8.92
2018-09-30T07:35:09.368Z,9.14
2018-09-30T07:36:09.362Z,9.18
2018-09-30T07:37:09.356Z,9.29
2018-09-30T07:38:09.351Z,9.47
2018-09-30T07:39:09.343Z,9.56
2018-09-30T07:40:09.336Z,9.69
2018-09-30T07:41:09.333Z,9.97
2018-09-30T07:42:09.324Z,10.10
2018-09-30T07:43:09.317Z,10.16
2018-09-30T07:44:09.311Z,10.09
2018-09-30T07:45:09.306Z,10.22
2018-09-30T07:46:09.298Z,10.23
2018-09-30T07:47:09.293Z,10.37
2018-09-30T07:48:09.288Z,10.42
2018-09-30T07:49:09.281Z,10.41
2018-09-30T07:50:09.275Z,10.51
2018-09-30T07:51:09.269Z,10.56
2018-09-30T07:52:09.263Z,10.61
2018-09-30T07:53:09.257Z,10.63
2018-09-30T07:54:09.251Z,10.64
2018-09-30T07:55:09.245Z,10.61
2018-09-30T07:56:09.239Z,10.64
2018-09-30T07:57:09.234Z,10.67
2018-09-30T07:58:09.227Z,10.72
2018-09-30T07:59:09.224Z,10.71
2018-09-30T08:00:09.215Z,10.82
2018-09-30T08:01:09.209Z,10.86
2018-09-30T08:02:09.203Z,10.89
2018-09-30T08:03:09.197Z,10.94
2018-09-30T08:04:09.190Z,11.07
2018-09-30T08:05:09.186Z,11.08
2018-09-30T08:06:09.181Z,11.05
2018-09-30T08:07:09.175Z,11.12
2018-09-30T08:08:09.172Z,11.25
2018-09-30T08:09:09.165Z,11.27
2018-09-30T08:10:09.160Z,11.40
2018-09-30T08:11:09.152Z,11.35
2018-09-30T08:12:09.149Z,11.32
2018-09-30T08:13:09.143Z,11.33
2018-09-30T08:14:09.137Z,11.41
2018-09-30T08:15:09.132Z,11.48
2018-09-30T08:16:09.125Z,11.47
2018-09-30T08:17:09.120Z,11.50
2018-09-30T08:18:09.114Z,11.57
2018-09-30T08:19:09.109Z,11.63
2018-09-30T08:20:09.104Z,11.66
2018-09-30T08:21:09.100Z,11.62
2018-09-30T08:22:09.094Z,11.66
2018-09-30T08:23:09.089Z,11.69
2018-09-30T08:24:09.111Z,11.72
2018-09-30T08:25:09.079Z,11.66
2018-09-30T08:26:09.073Z,11.81
2018-09-30T08:27:09.069Z,11.91
2018-09-30T08:28:09.063Z,11.87
2018-09-30T08:29:09.059Z,11.90
2018-09-30T08:30:09.053Z,11.95
2018-09-30T08:31:09.048Z,11.91
2018-09-30T08:32:09.043Z,11.91
2018-09-30T08:33:09.039Z,12.02
2018-09-30T08:34:09.032Z,11.97
2018-09-30T08:35:09.027Z,12.12
2018-09-30T08:36:09.024Z,12.21
2018-09-30T08:37:09.017Z,12.22
2018-09-30T08:38:09.011Z,12.29
2018-09-30T08:39:09.009Z,12.31
2018-09-30T08:40:09.097Z,12.39
2018-09-30T08:41:08.999Z,12.37
2018-09-30T08:42:08.997Z,12.31
2018-09-30T08:43:08.991Z,12.37
2018-09-30T08:44:09.024Z,12.57
2018-09-30T08:45:08.980Z,12.53
2018-09-30T08:46:08.974Z,12.53
2018-09-30T08:47:09.001Z,12.55
2018-09-30T08:48:08.965Z,12.50
2018-09-30T08:49:09.012Z,12.53
2018-09-30T08:50:08.957Z,12.54
2018-09-30T08:51:08.952Z,12.53
2018-09-30T08:52:08.948Z,12.64
2018-09-30T08:53:08.942Z,12.79
2018-09-30T08:54:08.940Z,12.82
2018-09-30T08:55:08.935Z,12.82
2018-09-30T08:56:08.971Z,12.76
2018-09-30T08:57:08.927Z,12.75
2018-09-30T08:58:08.921Z,12.86
2018-09-30T08:59:08.918Z,12.86
2018-09-30T09:00:08.912Z,13.04
2018-09-30T09:01:08.910Z,13.15
2018-09-30T09:02:08.903Z,13.15
2018-09-30T09:03:08.924Z,13.47
2018-09-30T09:04:08.898Z,13.93
2018-09-30T09:05:08.894Z,14.94
2018-09-30T09:06:08.888Z,15.98
2018-09-30T09:07:08.887Z,17.15
2018-09-30T09:08:08.885Z,17.89
2018-09-30T09:09:08.883Z,18.68
2018-09-30T09:10:08.881Z,19.02
2018-09-30T09:11:08.886Z,18.93
2018-09-30T09:12:08.881Z,19.07
2018-09-30T09:13:08.882Z,19.71
2018-09-30T09:14:08.881Z,20.31
2018-09-30T09:15:08.883Z,20.56
2018-09-30T09:16:08.886Z,20.52
2018-09-30T09:17:08.889Z,20.58
2018-09-30T09:18:08.891Z,20.77
2018-09-30T09:19:08.896Z,20.74
2018-09-30T09:20:08.899Z,20.78
2018-09-30T09:21:08.905Z,20.70
2018-09-30T09:22:08.955Z,20.99
2018-09-30T09:23:08.914Z,21.39
2018-09-30T09:24:08.922Z,21.00
2018-09-30T09:25:08.927Z,20.58
2018-09-30T09:26:08.932Z,20.85
2018-09-30T09:27:08.937Z,21.07
2018-09-30T09:28:08.977Z,21.05
2018-09-30T09:29:08.954Z,21.33
2018-09-30T09:30:08.958Z,21.83
2018-09-30T09:31:08.972Z,21.09
2018-09-30T09:32:08.978Z,21.60
2018-09-30T09:33:09.109Z,21.69
2018-09-30T09:34:08.991Z,21.60
2018-09-30T09:35:09.014Z,21.24
2018-09-30T09:36:09.008Z,20.82
2018-09-30T09:37:09.028Z,20.81
2018-09-30T09:38:09.026Z,20.47
2018-09-30T09:39:09.035Z,20.44
2018-09-30T09:40:09.045Z,20.25
2018-09-30T09:41:09.053Z,20.88
2018-09-30T09:42:09.062Z,20.99
2018-09-30T09:43:09.070Z,20.85
2018-09-30T09:44:09.080Z,20.93
2018-09-30T09:45:09.090Z,20.77
2018-09-30T09:46:09.098Z,21.22
2018-09-30T09:47:09.177Z,21.35
2018-09-30T09:48:09.121Z,21.54
2018-09-30T09:49:09.130Z,21.57
2018-09-30T09:50:09.140Z,21.11
2018-09-30T09:51:09.151Z,20.77
2018-09-30T09:52:09.164Z,20.41
2018-09-30T09:53:09.172Z,20.88
2018-09-30T09:54:09.192Z,21.20
2018-09-30T09:55:09.193Z,21.30
2018-09-30T09:56:09.203Z,21.64
2018-09-30T09:57:09.213Z,21.62
2018-09-30T09:58:09.224Z,21.62
2018-09-30T09:59:09.273Z,20.77
2018-09-30T10:00:09.244Z,20.50
2018-09-30T10:01:09.260Z,20.78
2018-09-30T10:02:09.267Z,20.28
2018-09-30T10:03:09.278Z,20.36
2018-09-30T10:04:09.289Z,20.72
2018-09-30T10:05:09.356Z,21.57
2018-09-30T10:06:09.309Z,21.43
2018-09-30T10:07:09.322Z,21.27
2018-09-30T10:08:09.383Z,20.84
2018-09-30T10:09:09.344Z,21.05
2018-09-30T10:10:09.353Z,21.14
2018-09-30T10:11:09.365Z,20.24
2018-09-30T10:12:09.377Z,20.70
2018-09-30T10:13:09.394Z,20.99
2018-09-30T10:14:09.396Z,21.39
2018-09-30T10:15:09.411Z,21.62
2018-09-30T10:16:09.418Z,21.93
2018-09-30T10:17:09.430Z,22.28
2018-09-30T10:18:09.442Z,22.85
2018-09-30T10:19:09.451Z,23.00
2018-09-30T10:20:09.464Z,22.50
2018-09-30T10:21:09.475Z,21.46
2018-09-30T10:22:09.482Z,20.85
2018-09-30T10:23:09.494Z,20.69
2018-09-30T10:24:09.505Z,21.11
2018-09-30T10:25:09.516Z,21.48
2018-09-30T10:26:09.526Z,21.54
2018-09-30T10:27:09.539Z,21.95
2018-09-30T10:28:09.548Z,22.06
2018-09-30T10:29:09.559Z,22.23
2018-09-30T10:30:09.569Z,20.95
2018-09-30T10:31:09.582Z,20.10
2018-09-30T10:32:09.598Z,19.22
2018-09-30T10:33:09.602Z,18.55
2018-09-30T10:34:09.612Z,18.43
2018-09-30T10:35:09.624Z,18.19
2018-09-30T10:36:09.632Z,17.60
2018-09-30T10:37:09.641Z,17.29
2018-09-30T10:38:09.649Z,16.89
2018-09-30T10:39:09.812Z,16.74
2018-09-30T10:40:09.669Z,16.61
2018-09-30T10:41:09.678Z,16.60
2018-09-30T10:42:09.684Z,16.57
2018-09-30T10:43:09.694Z,16.61
2018-09-30T10:44:09.698Z,16.68
2018-09-30T10:45:09.706Z,16.65
2018-09-30T10:46:09.712Z,16.64
2018-09-30T10:47:09.719Z,16.57
2018-09-30T10:48:09.726Z,16.79
2018-09-30T10:49:09.730Z,17.04
2018-09-30T10:50:09.736Z,16.86
2018-09-30T10:51:09.744Z,16.83
2018-09-30T10:52:09.749Z,16.89
2018-09-30T10:53:09.753Z,16.86
2018-09-30T10:54:09.759Z,16.94
2018-09-30T10:55:09.767Z,16.84
2018-09-30T10:56:09.767Z,16.90
2018-09-30T10:57:09.773Z,16.99
2018-09-30T10:58:09.777Z,16.99
2018-09-30T10:59:09.781Z,16.94
2018-09-30T11:00:09.785Z,17.01
2018-09-30T11:01:09.791Z,16.90
2018-09-30T11:02:09.796Z,16.81
2018-09-30T11:03:09.796Z,16.84
2018-09-30T11:04:09.801Z,16.76
2018-09-30T11:05:09.804Z,16.91
2018-09-30T11:06:09.805Z,16.97
2018-09-30T11:07:09.811Z,17.09
2018-09-30T11:08:09.813Z,17.02
2018-09-30T11:09:09.816Z,16.91
2018-09-30T11:10:09.832Z,16.76
2018-09-30T11:11:09.822Z,16.76
2018-09-30T11:12:09.825Z,16.89
2018-09-30T11:13:09.831Z,16.89
2018-09-30T11:14:09.833Z,17.04
2018-09-30T11:15:09.833Z,17.08
2018-09-30T11:16:09.944Z,17.12
2018-09-30T11:17:09.842Z,17.11
2018-09-30T11:18:09.840Z,17.29
2018-09-30T11:19:09.843Z,17.27
2018-09-30T11:20:09.845Z,17.27
2018-09-30T11:21:09.849Z,17.26
2018-09-30T11:22:09.850Z,17.36
2018-09-30T11:23:09.855Z,17.64
2018-09-30T11:24:09.857Z,17.82
2018-09-30T11:25:09.858Z,17.87
2018-09-30T11:26:09.859Z,17.95
2018-09-30T11:27:09.862Z,17.78
2018-09-30T11:28:09.864Z,17.86
2018-09-30T11:29:09.866Z,17.86
2018-09-30T11:30:09.869Z,18.07
2018-09-30T11:31:09.870Z,18.07
2018-09-30T11:32:09.875Z,17.60
2018-09-30T11:33:09.875Z,17.60
2018-09-30T11:34:09.877Z,17.76
2018-09-30T11:35:09.879Z,17.97
2018-09-30T11:36:09.882Z,18.20
2018-09-30T11:37:09.884Z,18.25
2018-09-30T11:38:09.885Z,18.08
2018-09-30T11:39:09.888Z,17.83
2018-09-30T11:40:09.891Z,17.63
2018-09-30T11:41:09.893Z,17.27
2018-09-30T11:42:09.895Z,17.41
2018-09-30T11:43:09.897Z,17.54
2018-09-30T11:44:09.900Z,17.67
2018-09-30T11:45:09.903Z,17.89
2018-09-30T11:46:09.904Z,18.08
2018-09-30T11:47:09.905Z,18.15
2018-09-30T11:48:09.908Z,18.19
2018-09-30T11:49:09.909Z,18.20
2018-09-30T11:50:09.912Z,17.89
2018-09-30T11:51:09.914Z,17.78
2018-09-30T11:52:09.914Z,17.83
2018-09-30T11:53:09.917Z,17.72
2018-09-30T11:54:09.918Z,17.79
2018-09-30T11:55:09.921Z,17.71
2018-09-30T11:56:09.923Z,17.80
2018-09-30T11:57:09.926Z,17.86
2018-09-30T11:58:09.925Z,17.97
2018-09-30T11:59:09.929Z,17.87
2018-09-30T12:00:09.930Z,17.67
2018-09-30T12:01:09.992Z,17.79
2018-09-30T12:02:09.941Z,17.83
2018-09-30T12:03:09.936Z,17.85
2018-09-30T12:04:09.941Z,18.05
2018-09-30T12:05:09.940Z,18.10
2018-09-30T12:06:09.941Z,17.98
2018-09-30T12:07:09.943Z,18.01
2018-09-30T12:08:09.945Z,18.07
2018-09-30T12:09:09.949Z,18.20
2018-09-30T12:10:09.949Z,18.13
2018-09-30T12:11:09.949Z,18.04
2018-09-30T12:12:09.950Z,17.97
2018-09-30T12:13:09.959Z,18.01
2018-09-30T12:14:09.954Z,18.07
2018-09-30T12:15:09.957Z,18.07
2018-09-30T12:16:09.958Z,18.18
2018-09-30T12:17:09.960Z,18.04
2018-09-30T12:18:09.962Z,18.05
2018-09-30T12:19:09.963Z,18.19
2018-09-30T12:20:09.967Z,18.31
2018-09-30T12:21:09.967Z,18.43
2018-09-30T12:22:09.971Z,18.71
2018-09-30T12:23:09.970Z,18.70
2018-09-30T12:24:09.973Z,18.89
2018-09-30T12:25:09.975Z,18.81
2018-09-30T12:26:09.975Z,18.73
2018-09-30T12:27:09.977Z,18.56
2018-09-30T12:28:09.980Z,18.62
2018-09-30T12:29:09.981Z,18.49
2018-09-30T12:30:09.983Z,18.37
2018-09-30T12:31:09.983Z,18.26
2018-09-30T12:32:09.986Z,18.40
2018-09-30T12:33:09.986Z,18.44
2018-09-30T12:34:09.989Z,18.34
2018-09-30T12:35:09.991Z,18.40
2018-09-30T12:36:09.993Z,18.55
2018-09-30T12:37:09.996Z,18.53
2018-09-30T12:38:09.996Z,18.50
2018-09-30T12:39:10.045Z,18.38
2018-09-30T12:40:10.000Z,18.50
2018-09-30T12:41:10.008Z,18.40
2018-09-30T12:42:10.003Z,18.20
2018-09-30T12:43:10.005Z,18.26
2018-09-30T12:44:10.008Z,18.45
2018-09-30T12:45:10.011Z,18.23
2018-09-30T12:46:10.010Z,18.37
2018-09-30T12:47:10.014Z,18.41
2018-09-30T12:48:10.014Z,18.35
2018-09-30T12:49:10.018Z,18.28
2018-09-30T12:50:10.019Z,18.22
2018-09-30T12:51:10.021Z,18.29
2018-09-30T12:52:10.022Z,18.18
2018-09-30T12:53:10.024Z,18.05
2018-09-30T12:54:10.024Z,17.83
2018-09-30T12:55:10.028Z,17.97
2018-09-30T12:56:10.033Z,18.04
2018-09-30T12:57:10.031Z,18.20
2018-09-30T12:58:10.123Z,17.85
2018-09-30T12:59:10.035Z,17.78
2018-09-30T13:00:10.038Z,17.76
2018-09-30T13:01:10.038Z,17.76
2018-09-30T13:02:10.039Z,17.89
2018-09-30T13:03:10.039Z,17.87
2018-09-30T13:04:10.042Z,18.11
2018-09-30T13:05:10.047Z,17.97
2018-09-30T13:06:10.044Z,18.10
2018-09-30T13:07:10.059Z,18.07